sensor_id;sensor_type;location;lat;lon;timestamp;P1;durP1;ratioP1;P2;durP2;ratioP2
31730;SDS011;18310;55.586;12.286;2023-02-22T00:01:45;21.73;;;8.00;;
31730;SDS011;18310;55.586;12.286;2023-02-22T00:04:51;20.42;;;8.65;;
31730;SDS011;18310;55.586;12.286;2023-02-22T00:07:55;19.40;;;7.43;;
31730;SDS011;18310;55.586;12.286;2023-02-22T00:10:59;24.75;;;8.48;;
31730;SDS011;18310;55.586;12.286;2023-02-22T00:14:03;21.08;;;8.02;;
31730;SDS011;18310;55.586;12.286;2023-02-22T00:17:08;28.13;;;8.88;;
31730;SDS011;18310;55.586;12.286;2023-02-22T00:20:14;27.50;;;6.30;;
31730;SDS011;18310;55.586;12.286;2023-02-22T00:23:21;19.33;;;5.63;;
31730;SDS011;18310;55.586;12.286;2023-02-22T00:26:25;11.63;;;4.38;;
31730;SDS011;18310;55.586;12.286;2023-02-22T00:29:28;11.25;;;3.10;;
31730;SDS011;18310;55.586;12.286;2023-02-22T00:32:35;6.75;;;1.90;;
31730;SDS011;18310;55.586;12.286;2023-02-22T00:35:39;5.65;;;1.70;;
31730;SDS011;18310;55.586;12.286;2023-02-22T00:38:46;5.20;;;0.88;;
31730;SDS011;18310;55.586;12.286;2023-02-22T00:41:49;8.18;;;1.25;;
31730;SDS011;18310;55.586;12.286;2023-02-22T00:44:52;7.63;;;1.30;;
31730;SDS011;18310;55.586;12.286;2023-02-22T00:47:57;5.65;;;1.23;;
31730;SDS011;18310;55.586;12.286;2023-02-22T00:51:04;5.72;;;0.98;;
31730;SDS011;18310;55.586;12.286;2023-02-22T00:54:07;6.47;;;1.10;;
31730;SDS011;18310;55.586;12.286;2023-02-22T00:57:11;7.60;;;0.90;;
31730;SDS011;18310;55.586;12.286;2023-02-22T01:00:15;4.28;;;0.85;;
31730;SDS011;18310;55.586;12.286;2023-02-22T01:03:27;2.53;;;0.80;;
31730;SDS011;18310;55.586;12.286;2023-02-22T01:06:34;2.60;;;0.40;;
31730;SDS011;18310;55.586;12.286;2023-02-22T01:09:40;8.07;;;0.77;;
31730;SDS011;18310;55.586;12.286;2023-02-22T01:12:44;1.90;;;0.60;;
31730;SDS011;18310;55.586;12.286;2023-02-22T01:15:48;6.80;;;0.77;;
31730;SDS011;18310;55.586;12.286;2023-02-22T01:18:53;2.80;;;0.50;;
31730;SDS011;18310;55.586;12.286;2023-02-22T01:21:56;4.22;;;0.60;;
31730;SDS011;18310;55.586;12.286;2023-02-22T01:24:59;5.35;;;0.40;;
31730;SDS011;18310;55.586;12.286;2023-02-22T01:28:04;5.05;;;0.82;;
31730;SDS011;18310;55.586;12.286;2023-02-22T01:31:09;4.07;;;0.70;;
31730;SDS011;18310;55.586;12.286;2023-02-22T01:34:14;3.50;;;0.70;;
31730;SDS011;18310;55.586;12.286;2023-02-22T01:37:18;6.60;;;0.80;;
31730;SDS011;18310;55.586;12.286;2023-02-22T01:40:23;4.78;;;0.80;;
31730;SDS011;18310;55.586;12.286;2023-02-22T01:43:29;5.72;;;1.02;;
31730;SDS011;18310;55.586;12.286;2023-02-22T01:46:33;5.13;;;0.47;;
31730;SDS011;18310;55.586;12.286;2023-02-22T01:49:39;4.28;;;0.95;;
31730;SDS011;18310;55.586;12.286;2023-02-22T01:52:45;3.85;;;0.65;;
31730;SDS011;18310;55.586;12.286;2023-02-22T01:55:48;9.68;;;1.05;;
31730;SDS011;18310;55.586;12.286;2023-02-22T01:58:54;5.75;;;1.00;;
31730;SDS011;18310;55.586;12.286;2023-02-22T02:02:02;10.65;;;1.17;;
31730;SDS011;18310;55.586;12.286;2023-02-22T02:08:15;2.17;;;0.68;;
31730;SDS011;18310;55.586;12.286;2023-02-22T02:11:26;7.13;;;0.90;;
31730;SDS011;18310;55.586;12.286;2023-02-22T02:14:30;6.10;;;0.73;;
31730;SDS011;18310;55.586;12.286;2023-02-22T02:17:34;4.95;;;0.75;;
31730;SDS011;18310;55.586;12.286;2023-02-22T02:20:41;8.57;;;1.25;;
31730;SDS011;18310;55.586;12.286;2023-02-22T02:24:05;10.70;;;0.80;;
31730;SDS011;18310;55.586;12.286;2023-02-22T02:27:32;4.07;;;0.80;;
31730;SDS011;18310;55.586;12.286;2023-02-22T02:30:48;2.97;;;0.63;;
31730;SDS011;18310;55.586;12.286;2023-02-22T02:34:22;3.13;;;0.70;;
31730;SDS011;18310;55.586;12.286;2023-02-22T02:37:35;4.70;;;0.60;;
31730;SDS011;18310;55.586;12.286;2023-02-22T02:40:45;5.18;;;0.90;;
31730;SDS011;18310;55.586;12.286;2023-02-22T02:43:52;7.97;;;0.90;;
31730;SDS011;18310;55.586;12.286;2023-02-22T02:47:03;4.45;;;0.82;;
31730;SDS011;18310;55.586;12.286;2023-02-22T02:50:12;3.88;;;1.00;;
31730;SDS011;18310;55.586;12.286;2023-02-22T02:53:20;4.45;;;0.85;;
31730;SDS011;18310;55.586;12.286;2023-02-22T02:56:27;7.78;;;0.90;;
31730;SDS011;18310;55.586;12.286;2023-02-22T02:59:31;4.03;;;0.73;;
31730;SDS011;18310;55.586;12.286;2023-02-22T03:02:42;3.00;;;0.70;;
31730;SDS011;18310;55.586;12.286;2023-02-22T03:06:08;8.40;;;0.75;;
31730;SDS011;18310;55.586;12.286;2023-02-22T03:09:37;2.80;;;0.70;;
31730;SDS011;18310;55.586;12.286;2023-02-22T03:12:47;4.55;;;0.90;;
31730;SDS011;18310;55.586;12.286;2023-02-22T03:15:57;5.20;;;0.90;;
31730;SDS011;18310;55.586;12.286;2023-02-22T03:19:12;7.82;;;0.60;;
31730;SDS011;18310;55.586;12.286;2023-02-22T03:22:24;1.73;;;0.38;;
31730;SDS011;18310;55.586;12.286;2023-02-22T03:25:33;6.60;;;1.02;;
31730;SDS011;18310;55.586;12.286;2023-02-22T03:28:40;3.55;;;0.50;;
31730;SDS011;18310;55.586;12.286;2023-02-22T03:31:46;5.68;;;0.95;;
31730;SDS011;18310;55.586;12.286;2023-02-22T03:34:56;5.15;;;0.80;;
31730;SDS011;18310;55.586;12.286;2023-02-22T03:38:04;5.40;;;0.80;;
31730;SDS011;18310;55.586;12.286;2023-02-22T03:41:11;5.97;;;0.80;;
31730;SDS011;18310;55.586;12.286;2023-02-22T03:44:20;3.13;;;0.68;;
31730;SDS011;18310;55.586;12.286;2023-02-22T03:47:27;6.10;;;0.73;;
31730;SDS011;18310;55.586;12.286;2023-02-22T03:50:36;5.15;;;0.85;;
31730;SDS011;18310;55.586;12.286;2023-02-22T03:53:41;6.20;;;0.73;;
31730;SDS011;18310;55.586;12.286;2023-02-22T03:56:48;5.57;;;0.82;;
31730;SDS011;18310;55.586;12.286;2023-02-22T03:59:54;5.10;;;0.77;;
31730;SDS011;18310;55.586;12.286;2023-02-22T04:02:58;4.75;;;0.80;;
31730;SDS011;18310;55.586;12.286;2023-02-22T04:06:02;7.88;;;1.00;;
31730;SDS011;18310;55.586;12.286;2023-02-22T04:09:07;6.78;;;0.70;;
31730;SDS011;18310;55.586;12.286;2023-02-22T04:12:10;5.53;;;0.80;;
31730;SDS011;18310;55.586;12.286;2023-02-22T04:15:14;3.40;;;0.80;;
31730;SDS011;18310;55.586;12.286;2023-02-22T04:18:20;4.32;;;0.47;;
31730;SDS011;18310;55.586;12.286;2023-02-22T04:21:23;7.13;;;1.15;;
31730;SDS011;18310;55.586;12.286;2023-02-22T04:24:28;7.57;;;1.02;;
31730;SDS011;18310;55.586;12.286;2023-02-22T04:27:32;3.88;;;0.70;;
31730;SDS011;18310;55.586;12.286;2023-02-22T04:30:35;7.15;;;0.80;;
31730;SDS011;18310;55.586;12.286;2023-02-22T04:33:39;4.45;;;1.00;;
31730;SDS011;18310;55.586;12.286;2023-02-22T04:36:42;4.72;;;0.70;;
31730;SDS011;18310;55.586;12.286;2023-02-22T04:39:47;3.03;;;0.68;;
31730;SDS011;18310;55.586;12.286;2023-02-22T04:42:51;5.97;;;0.85;;
31730;SDS011;18310;55.586;12.286;2023-02-22T04:45:54;2.97;;;0.85;;
31730;SDS011;18310;55.586;12.286;2023-02-22T04:48:58;6.13;;;0.80;;
31730;SDS011;18310;55.586;12.286;2023-02-22T04:52:02;8.25;;;0.77;;
31730;SDS011;18310;55.586;12.286;2023-02-22T04:55:08;4.00;;;0.65;;
31730;SDS011;18310;55.586;12.286;2023-02-22T04:58:11;5.38;;;0.73;;
31730;SDS011;18310;55.586;12.286;2023-02-22T05:01:15;4.10;;;0.93;;
31730;SDS011;18310;55.586;12.286;2023-02-22T05:04:18;2.53;;;0.52;;
31730;SDS011;18310;55.586;12.286;2023-02-22T05:07:22;2.92;;;1.08;;
31730;SDS011;18310;55.586;12.286;2023-02-22T05:10:28;6.00;;;0.90;;
31730;SDS011;18310;55.586;12.286;2023-02-22T05:13:32;4.20;;;0.95;;
31730;SDS011;18310;55.586;12.286;2023-02-22T05:16:35;3.70;;;0.73;;
31730;SDS011;18310;55.586;12.286;2023-02-22T05:19:39;4.03;;;0.90;;
31730;SDS011;18310;55.586;12.286;2023-02-22T05:22:42;4.75;;;0.95;;
31730;SDS011;18310;55.586;12.286;2023-02-22T05:25:47;5.15;;;0.70;;
31730;SDS011;18310;55.586;12.286;2023-02-22T05:28:50;3.75;;;0.80;;
31730;SDS011;18310;55.586;12.286;2023-02-22T05:31:54;4.80;;;0.80;;
31730;SDS011;18310;55.586;12.286;2023-02-22T05:34:58;4.32;;;0.70;;
31730;SDS011;18310;55.586;12.286;2023-02-22T05:38:02;4.40;;;0.98;;
31730;SDS011;18310;55.586;12.286;2023-02-22T05:41:06;12.43;;;1.10;;
31730;SDS011;18310;55.586;12.286;2023-02-22T05:44:11;4.35;;;1.17;;
31730;SDS011;18310;55.586;12.286;2023-02-22T05:47:20;6.60;;;1.17;;
31730;SDS011;18310;55.586;12.286;2023-02-22T05:50:24;3.20;;;0.80;;
31730;SDS011;18310;55.586;12.286;2023-02-22T05:53:27;4.57;;;1.20;;
31730;SDS011;18310;55.586;12.286;2023-02-22T05:56:32;4.28;;;0.85;;
31730;SDS011;18310;55.586;12.286;2023-02-22T05:59:36;7.43;;;0.80;;
31730;SDS011;18310;55.586;12.286;2023-02-22T06:02:39;10.80;;;0.88;;
31730;SDS011;18310;55.586;12.286;2023-02-22T06:05:42;3.22;;;0.70;;
31730;SDS011;18310;55.586;12.286;2023-02-22T06:08:46;2.63;;;0.80;;
31730;SDS011;18310;55.586;12.286;2023-02-22T06:11:51;4.38;;;1.45;;
31730;SDS011;18310;55.586;12.286;2023-02-22T06:14:54;5.75;;;1.10;;
31730;SDS011;18310;55.586;12.286;2023-02-22T06:17:58;2.38;;;0.85;;
31730;SDS011;18310;55.586;12.286;2023-02-22T06:21:02;5.68;;;1.10;;
31730;SDS011;18310;55.586;12.286;2023-02-22T06:24:09;8.50;;;1.00;;
31730;SDS011;18310;55.586;12.286;2023-02-22T06:27:14;9.80;;;1.38;;
31730;SDS011;18310;55.586;12.286;2023-02-22T06:30:18;7.25;;;1.20;;
31730;SDS011;18310;55.586;12.286;2023-02-22T06:33:24;4.82;;;1.00;;
31730;SDS011;18310;55.586;12.286;2023-02-22T06:36:27;4.63;;;1.13;;
31730;SDS011;18310;55.586;12.286;2023-02-22T06:39:31;7.50;;;1.30;;
31730;SDS011;18310;55.586;12.286;2023-02-22T06:42:36;8.63;;;1.50;;
31730;SDS011;18310;55.586;12.286;2023-02-22T06:45:39;5.63;;;1.38;;
31730;SDS011;18310;55.586;12.286;2023-02-22T06:48:42;4.28;;;1.30;;
31730;SDS011;18310;55.586;12.286;2023-02-22T06:51:46;6.75;;;1.38;;
31730;SDS011;18310;55.586;12.286;2023-02-22T06:54:50;3.83;;;0.98;;
31730;SDS011;18310;55.586;12.286;2023-02-22T06:57:55;5.28;;;1.15;;
31730;SDS011;18310;55.586;12.286;2023-02-22T07:00:58;6.93;;;1.27;;
31730;SDS011;18310;55.586;12.286;2023-02-22T07:04:04;7.68;;;1.08;;
31730;SDS011;18310;55.586;12.286;2023-02-22T07:07:07;5.82;;;1.15;;
31730;SDS011;18310;55.586;12.286;2023-02-22T07:10:14;6.53;;;1.30;;
31730;SDS011;18310;55.586;12.286;2023-02-22T07:13:24;4.00;;;0.90;;
31730;SDS011;18310;55.586;12.286;2023-02-22T07:16:27;8.40;;;0.85;;
31730;SDS011;18310;55.586;12.286;2023-02-22T07:19:30;5.35;;;1.20;;
31730;SDS011;18310;55.586;12.286;2023-02-22T07:22:33;6.38;;;1.20;;
31730;SDS011;18310;55.586;12.286;2023-02-22T07:25:36;3.67;;;0.98;;
31730;SDS011;18310;55.586;12.286;2023-02-22T07:28:41;7.23;;;1.17;;
31730;SDS011;18310;55.586;12.286;2023-02-22T07:31:44;4.00;;;0.75;;
31730;SDS011;18310;55.586;12.286;2023-02-22T07:34:47;4.73;;;0.90;;
31730;SDS011;18310;55.586;12.286;2023-02-22T07:37:50;4.20;;;0.98;;
31730;SDS011;18310;55.586;12.286;2023-02-22T07:40:56;5.72;;;0.98;;
31730;SDS011;18310;55.586;12.286;2023-02-22T07:44:01;8.95;;;1.23;;
31730;SDS011;18310;55.586;12.286;2023-02-22T07:47:04;5.50;;;0.90;;
31730;SDS011;18310;55.586;12.286;2023-02-22T07:50:07;6.27;;;1.20;;
31730;SDS011;18310;55.586;12.286;2023-02-22T07:53:11;6.87;;;1.00;;
31730;SDS011;18310;55.586;12.286;2023-02-22T07:56:18;9.25;;;1.65;;
31730;SDS011;18310;55.586;12.286;2023-02-22T07:59:22;10.10;;;1.53;;
31730;SDS011;18310;55.586;12.286;2023-02-22T08:02:26;4.15;;;0.90;;
31730;SDS011;18310;55.586;12.286;2023-02-22T08:05:30;5.38;;;0.88;;
31730;SDS011;18310;55.586;12.286;2023-02-22T08:08:35;3.58;;;0.95;;
31730;SDS011;18310;55.586;12.286;2023-02-22T08:11:38;6.78;;;0.95;;
31730;SDS011;18310;55.586;12.286;2023-02-22T08:14:43;3.60;;;0.87;;
31730;SDS011;18310;55.586;12.286;2023-02-22T08:17:46;4.32;;;1.00;;
31730;SDS011;18310;55.586;12.286;2023-02-22T08:20:49;5.03;;;0.90;;
31730;SDS011;18310;55.586;12.286;2023-02-22T08:23:55;4.78;;;1.10;;
31730;SDS011;18310;55.586;12.286;2023-02-22T08:26:58;6.68;;;1.10;;
31730;SDS011;18310;55.586;12.286;2023-02-22T08:30:02;11.68;;;1.27;;
31730;SDS011;18310;55.586;12.286;2023-02-22T08:33:09;8.00;;;0.95;;
31730;SDS011;18310;55.586;12.286;2023-02-22T08:36:16;5.18;;;0.90;;
31730;SDS011;18310;55.586;12.286;2023-02-22T08:39:19;3.53;;;0.60;;
31730;SDS011;18310;55.586;12.286;2023-02-22T08:42:23;5.30;;;1.00;;
31730;SDS011;18310;55.586;12.286;2023-02-22T08:45:27;3.55;;;0.95;;
31730;SDS011;18310;55.586;12.286;2023-02-22T08:48:31;5.07;;;0.95;;
31730;SDS011;18310;55.586;12.286;2023-02-22T08:51:34;6.05;;;0.90;;
31730;SDS011;18310;55.586;12.286;2023-02-22T08:54:38;6.35;;;0.63;;
31730;SDS011;18310;55.586;12.286;2023-02-22T08:57:41;3.38;;;0.85;;
31730;SDS011;18310;55.586;12.286;2023-02-22T09:00:46;4.30;;;1.13;;
31730;SDS011;18310;55.586;12.286;2023-02-22T09:03:49;12.18;;;1.30;;
31730;SDS011;18310;55.586;12.286;2023-02-22T09:06:53;8.30;;;1.17;;
31730;SDS011;18310;55.586;12.286;2023-02-22T09:09:55;6.65;;;1.13;;
31730;SDS011;18310;55.586;12.286;2023-02-22T09:12:59;4.03;;;1.00;;
31730;SDS011;18310;55.586;12.286;2023-02-22T09:16:05;5.82;;;1.23;;
31730;SDS011;18310;55.586;12.286;2023-02-22T09:19:08;2.95;;;1.08;;
31730;SDS011;18310;55.586;12.286;2023-02-22T09:22:11;3.05;;;0.95;;
31730;SDS011;18310;55.586;12.286;2023-02-22T09:25:15;3.78;;;1.08;;
31730;SDS011;18310;55.586;12.286;2023-02-22T09:28:21;4.50;;;1.10;;
31730;SDS011;18310;55.586;12.286;2023-02-22T09:31:26;7.68;;;1.10;;
31730;SDS011;18310;55.586;12.286;2023-02-22T09:34:30;4.40;;;1.40;;
31730;SDS011;18310;55.586;12.286;2023-02-22T09:37:35;5.40;;;1.00;;
31730;SDS011;18310;55.586;12.286;2023-02-22T09:40:39;3.72;;;1.05;;
31730;SDS011;18310;55.586;12.286;2023-02-22T09:43:47;2.95;;;0.98;;
31730;SDS011;18310;55.586;12.286;2023-02-22T09:47:00;5.90;;;1.20;;
31730;SDS011;18310;55.586;12.286;2023-02-22T09:50:11;4.05;;;1.08;;
31730;SDS011;18310;55.586;12.286;2023-02-22T09:53:20;4.65;;;1.17;;
31730;SDS011;18310;55.586;12.286;2023-02-22T09:56:30;4.03;;;0.98;;
31730;SDS011;18310;55.586;12.286;2023-02-22T09:59:36;3.63;;;1.17;;
31730;SDS011;18310;55.586;12.286;2023-02-22T10:02:47;3.97;;;1.00;;
31730;SDS011;18310;55.586;12.286;2023-02-22T10:06:01;2.95;;;0.85;;
31730;SDS011;18310;55.586;12.286;2023-02-22T10:09:11;4.03;;;1.10;;
31730;SDS011;18310;55.586;12.286;2023-02-22T10:15:35;3.72;;;0.80;;
31730;SDS011;18310;55.586;12.286;2023-02-22T10:19:00;4.45;;;0.98;;
31730;SDS011;18310;55.586;12.286;2023-02-22T10:22:33;6.20;;;1.25;;
31730;SDS011;18310;55.586;12.286;2023-02-22T10:25:52;3.83;;;1.23;;
31730;SDS011;18310;55.586;12.286;2023-02-22T10:29:08;5.95;;;1.27;;
31730;SDS011;18310;55.586;12.286;2023-02-22T10:32:19;3.22;;;1.05;;
31730;SDS011;18310;55.586;12.286;2023-02-22T10:35:36;5.95;;;1.08;;
31730;SDS011;18310;55.586;12.286;2023-02-22T10:38:42;5.15;;;1.00;;
31730;SDS011;18310;55.586;12.286;2023-02-22T10:41:56;6.40;;;1.10;;
31730;SDS011;18310;55.586;12.286;2023-02-22T10:45:13;6.93;;;1.35;;
31730;SDS011;18310;55.586;12.286;2023-02-22T10:48:25;5.28;;;1.08;;
31730;SDS011;18310;55.586;12.286;2023-02-22T10:51:34;3.40;;;1.05;;
31730;SDS011;18310;55.586;12.286;2023-02-22T10:54:40;7.18;;;1.10;;
31730;SDS011;18310;55.586;12.286;2023-02-22T10:57:48;4.25;;;1.00;;
31730;SDS011;18310;55.586;12.286;2023-02-22T11:01:00;6.00;;;1.38;;
31730;SDS011;18310;55.586;12.286;2023-02-22T11:04:23;5.93;;;1.05;;
31730;SDS011;18310;55.586;12.286;2023-02-22T11:07:28;10.35;;;1.55;;
31730;SDS011;18310;55.586;12.286;2023-02-22T11:10:33;4.82;;;1.13;;
31730;SDS011;18310;55.586;12.286;2023-02-22T11:13:38;3.85;;;1.58;;
31730;SDS011;18310;55.586;12.286;2023-02-22T11:16:42;2.83;;;0.93;;
31730;SDS011;18310;55.586;12.286;2023-02-22T11:19:52;6.18;;;1.02;;
31730;SDS011;18310;55.586;12.286;2023-02-22T11:22:57;3.10;;;1.30;;
31730;SDS011;18310;55.586;12.286;2023-02-22T11:26:05;7.68;;;1.20;;
31730;SDS011;18310;55.586;12.286;2023-02-22T11:29:17;6.57;;;1.10;;
31730;SDS011;18310;55.586;12.286;2023-02-22T11:32:26;4.45;;;0.98;;
31730;SDS011;18310;55.586;12.286;2023-02-22T11:35:34;4.63;;;1.17;;
31730;SDS011;18310;55.586;12.286;2023-02-22T11:38:53;3.35;;;1.00;;
31730;SDS011;18310;55.586;12.286;2023-02-22T11:42:06;3.75;;;0.93;;
31730;SDS011;18310;55.586;12.286;2023-02-22T11:45:23;5.97;;;1.17;;
31730;SDS011;18310;55.586;12.286;2023-02-22T11:48:28;4.82;;;1.50;;
31730;SDS011;18310;55.586;12.286;2023-02-22T11:51:39;3.95;;;1.00;;
31730;SDS011;18310;55.586;12.286;2023-02-22T11:55:02;4.43;;;1.20;;
31730;SDS011;18310;55.586;12.286;2023-02-22T11:58:42;5.57;;;1.00;;
31730;SDS011;18310;55.586;12.286;2023-02-22T12:01:54;3.55;;;1.20;;
31730;SDS011;18310;55.586;12.286;2023-02-22T12:05:09;4.15;;;1.38;;
31730;SDS011;18310;55.586;12.286;2023-02-22T12:08:31;6.63;;;1.20;;
31730;SDS011;18310;55.586;12.286;2023-02-22T12:11:53;4.43;;;1.27;;
31730;SDS011;18310;55.586;12.286;2023-02-22T12:15:22;2.63;;;1.00;;
31730;SDS011;18310;55.586;12.286;2023-02-22T12:18:43;4.72;;;1.13;;
31730;SDS011;18310;55.586;12.286;2023-02-22T12:22:07;4.10;;;1.02;;
31730;SDS011;18310;55.586;12.286;2023-02-22T12:25:22;4.32;;;1.10;;
31730;SDS011;18310;55.586;12.286;2023-02-22T12:28:33;4.78;;;1.20;;
31730;SDS011;18310;55.586;12.286;2023-02-22T12:31:44;5.10;;;1.40;;
31730;SDS011;18310;55.586;12.286;2023-02-22T12:34:54;5.85;;;1.20;;
31730;SDS011;18310;55.586;12.286;2023-02-22T12:38:08;4.57;;;1.35;;
31730;SDS011;18310;55.586;12.286;2023-02-22T12:41:24;4.82;;;1.13;;
31730;SDS011;18310;55.586;12.286;2023-02-22T12:44:39;3.33;;;0.93;;
31730;SDS011;18310;55.586;12.286;2023-02-22T12:48:03;5.70;;;1.20;;
31730;SDS011;18310;55.586;12.286;2023-02-22T12:51:30;1.92;;;0.95;;
31730;SDS011;18310;55.586;12.286;2023-02-22T12:54:46;5.25;;;1.48;;
31730;SDS011;18310;55.586;12.286;2023-02-22T12:58:05;4.97;;;1.20;;
31730;SDS011;18310;55.586;12.286;2023-02-22T13:01:23;5.78;;;1.45;;
31730;SDS011;18310;55.586;12.286;2023-02-22T13:04:34;6.82;;;1.55;;
31730;SDS011;18310;55.586;12.286;2023-02-22T13:07:38;5.33;;;1.40;;
31730;SDS011;18310;55.586;12.286;2023-02-22T13:11:04;7.45;;;1.50;;
31730;SDS011;18310;55.586;12.286;2023-02-22T13:14:29;9.55;;;1.95;;
31730;SDS011;18310;55.586;12.286;2023-02-22T13:17:47;4.50;;;1.27;;
31730;SDS011;18310;55.586;12.286;2023-02-22T13:21:08;5.53;;;1.20;;
31730;SDS011;18310;55.586;12.286;2023-02-22T13:24:22;4.75;;;1.33;;
31730;SDS011;18310;55.586;12.286;2023-02-22T13:27:36;5.53;;;1.13;;
31730;SDS011;18310;55.586;12.286;2023-02-22T13:30:48;4.75;;;1.30;;
31730;SDS011;18310;55.586;12.286;2023-02-22T13:34:18;6.43;;;1.70;;
31730;SDS011;18310;55.586;12.286;2023-02-22T13:37:45;4.30;;;1.08;;
31730;SDS011;18310;55.586;12.286;2023-02-22T13:41:09;6.65;;;1.70;;
31730;SDS011;18310;55.586;12.286;2023-02-22T13:45:03;8.43;;;1.40;;
31730;SDS011;18310;55.586;12.286;2023-02-22T13:49:06;6.50;;;1.30;;
31730;SDS011;18310;55.586;12.286;2023-02-22T13:52:29;6.45;;;1.60;;
31730;SDS011;18310;55.586;12.286;2023-02-22T13:55:36;5.22;;;1.17;;
31730;SDS011;18310;55.586;12.286;2023-02-22T13:58:46;5.43;;;1.20;;
31730;SDS011;18310;55.586;12.286;2023-02-22T14:01:53;7.97;;;1.25;;
31730;SDS011;18310;55.586;12.286;2023-02-22T14:04:59;9.40;;;2.08;;
31730;SDS011;18310;55.586;12.286;2023-02-22T14:08:02;6.13;;;1.35;;
31730;SDS011;18310;55.586;12.286;2023-02-22T14:14:55;8.23;;;1.63;;
31730;SDS011;18310;55.586;12.286;2023-02-22T14:18:30;4.90;;;1.42;;
31730;SDS011;18310;55.586;12.286;2023-02-22T14:21:55;10.63;;;2.10;;
31730;SDS011;18310;55.586;12.286;2023-02-22T14:25:02;8.80;;;2.13;;
31730;SDS011;18310;55.586;12.286;2023-02-22T14:28:07;9.05;;;2.42;;
31730;SDS011;18310;55.586;12.286;2023-02-22T14:31:53;17.40;;;2.80;;
31730;SDS011;18310;55.586;12.286;2023-02-22T14:35:04;8.90;;;2.73;;
31730;SDS011;18310;55.586;12.286;2023-02-22T14:38:28;7.22;;;2.45;;
31730;SDS011;18310;55.586;12.286;2023-02-22T14:41:32;11.93;;;2.35;;
31730;SDS011;18310;55.586;12.286;2023-02-22T14:44:39;9.05;;;2.13;;
31730;SDS011;18310;55.586;12.286;2023-02-22T14:47:52;9.23;;;2.35;;
31730;SDS011;18310;55.586;12.286;2023-02-22T14:51:04;10.57;;;2.78;;
31730;SDS011;18310;55.586;12.286;2023-02-22T14:54:26;8.45;;;2.67;;
31730;SDS011;18310;55.586;12.286;2023-02-22T14:57:37;9.90;;;2.30;;
31730;SDS011;18310;55.586;12.286;2023-02-22T15:00:53;7.15;;;2.25;;
31730;SDS011;18310;55.586;12.286;2023-02-22T15:03:58;5.10;;;1.85;;
31730;SDS011;18310;55.586;12.286;2023-02-22T15:07:24;6.47;;;1.92;;
31730;SDS011;18310;55.586;12.286;2023-02-22T15:10:37;5.30;;;1.40;;
31730;SDS011;18310;55.586;12.286;2023-02-22T15:13:48;5.93;;;1.65;;
31730;SDS011;18310;55.586;12.286;2023-02-22T15:16:54;12.68;;;2.38;;
31730;SDS011;18310;55.586;12.286;2023-02-22T15:20:04;5.65;;;1.20;;
31730;SDS011;18310;55.586;12.286;2023-02-22T15:23:11;3.63;;;1.02;;
31730;SDS011;18310;55.586;12.286;2023-02-22T15:26:20;6.18;;;1.40;;
31730;SDS011;18310;55.586;12.286;2023-02-22T15:29:38;9.73;;;1.80;;
31730;SDS011;18310;55.586;12.286;2023-02-22T15:32:47;4.38;;;1.42;;
31730;SDS011;18310;55.586;12.286;2023-02-22T15:36:11;4.78;;;1.40;;
31730;SDS011;18310;55.586;12.286;2023-02-22T15:39:19;5.47;;;1.58;;
31730;SDS011;18310;55.586;12.286;2023-02-22T15:42:29;7.10;;;1.20;;
31730;SDS011;18310;55.586;12.286;2023-02-22T15:45:34;7.68;;;1.50;;
31730;SDS011;18310;55.586;12.286;2023-02-22T15:48:44;5.43;;;1.25;;
31730;SDS011;18310;55.586;12.286;2023-02-22T15:52:08;5.00;;;1.13;;
31730;SDS011;18310;55.586;12.286;2023-02-22T15:55:26;5.85;;;1.50;;
31730;SDS011;18310;55.586;12.286;2023-02-22T15:58:35;4.22;;;1.40;;
31730;SDS011;18310;55.586;12.286;2023-02-22T16:01:41;7.40;;;1.52;;
31730;SDS011;18310;55.586;12.286;2023-02-22T16:04:52;3.03;;;1.00;;
31730;SDS011;18310;55.586;12.286;2023-02-22T16:08:08;3.85;;;1.20;;
31730;SDS011;18310;55.586;12.286;2023-02-22T16:11:25;4.53;;;1.02;;
31730;SDS011;18310;55.586;12.286;2023-02-22T16:14:47;6.15;;;1.35;;
31730;SDS011;18310;55.586;12.286;2023-02-22T16:17:53;5.13;;;1.13;;
31730;SDS011;18310;55.586;12.286;2023-02-22T16:21:04;9.02;;;1.58;;
31730;SDS011;18310;55.586;12.286;2023-02-22T16:24:24;2.65;;;1.17;;
31730;SDS011;18310;55.586;12.286;2023-02-22T16:27:30;3.78;;;1.23;;
31730;SDS011;18310;55.586;12.286;2023-02-22T16:30:55;5.68;;;1.52;;
31730;SDS011;18310;55.586;12.286;2023-02-22T16:34:01;3.28;;;0.90;;
31730;SDS011;18310;55.586;12.286;2023-02-22T16:37:16;4.30;;;1.25;;
31730;SDS011;18310;55.586;12.286;2023-02-22T16:40:24;8.85;;;1.05;;
31730;SDS011;18310;55.586;12.286;2023-02-22T16:43:32;4.63;;;1.23;;
31730;SDS011;18310;55.586;12.286;2023-02-22T16:46:39;4.47;;;1.40;;
31730;SDS011;18310;55.586;12.286;2023-02-22T16:49:43;6.13;;;1.02;;
31730;SDS011;18310;55.586;12.286;2023-02-22T16:52:57;5.35;;;1.35;;
31730;SDS011;18310;55.586;12.286;2023-02-22T16:56:03;6.15;;;1.63;;
31730;SDS011;18310;55.586;12.286;2023-02-22T16:59:13;4.35;;;1.27;;
31730;SDS011;18310;55.586;12.286;2023-02-22T17:02:20;6.60;;;1.38;;
31730;SDS011;18310;55.586;12.286;2023-02-22T17:05:24;7.32;;;1.65;;
31730;SDS011;18310;55.586;12.286;2023-02-22T17:08:57;4.63;;;0.95;;
31730;SDS011;18310;55.586;12.286;2023-02-22T17:15:05;9.18;;;1.58;;
31730;SDS011;18310;55.586;12.286;2023-02-22T17:18:12;6.20;;;1.60;;
31730;SDS011;18310;55.586;12.286;2023-02-22T17:21:23;7.30;;;1.67;;
31730;SDS011;18310;55.586;12.286;2023-02-22T17:24:27;5.47;;;1.40;;
31730;SDS011;18310;55.586;12.286;2023-02-22T17:27:31;3.92;;;1.10;;
31730;SDS011;18310;55.586;12.286;2023-02-22T17:30:35;6.65;;;1.48;;
31730;SDS011;18310;55.586;12.286;2023-02-22T17:33:42;5.82;;;1.67;;
31730;SDS011;18310;55.586;12.286;2023-02-22T17:36:48;7.05;;;2.00;;
31730;SDS011;18310;55.586;12.286;2023-02-22T17:39:52;8.82;;;1.88;;
31730;SDS011;18310;55.586;12.286;2023-02-22T17:43:03;5.97;;;2.10;;
31730;SDS011;18310;55.586;12.286;2023-02-22T17:46:09;6.05;;;1.55;;
31730;SDS011;18310;55.586;12.286;2023-02-22T17:49:15;6.20;;;1.77;;
31730;SDS011;18310;55.586;12.286;2023-02-22T17:52:19;5.07;;;1.85;;
31730;SDS011;18310;55.586;12.286;2023-02-22T17:55:26;8.18;;;1.92;;
31730;SDS011;18310;55.586;12.286;2023-02-22T17:58:31;5.35;;;2.22;;
31730;SDS011;18310;55.586;12.286;2023-02-22T18:01:36;8.05;;;1.98;;
31730;SDS011;18310;55.586;12.286;2023-02-22T18:04:41;5.95;;;1.65;;
31730;SDS011;18310;55.586;12.286;2023-02-22T18:07:45;8.77;;;2.00;;
31730;SDS011;18310;55.586;12.286;2023-02-22T18:13:57;10.23;;;2.00;;
31730;SDS011;18310;55.586;12.286;2023-02-22T18:17:01;6.97;;;2.03;;
31730;SDS011;18310;55.586;12.286;2023-02-22T18:20:09;11.60;;;2.00;;
31730;SDS011;18310;55.586;12.286;2023-02-22T18:23:16;10.20;;;2.13;;
31730;SDS011;18310;55.586;12.286;2023-02-22T18:26:30;5.30;;;2.72;;
31730;SDS011;18310;55.586;12.286;2023-02-22T18:29:35;6.05;;;2.40;;
31730;SDS011;18310;55.586;12.286;2023-02-22T18:32:40;7.38;;;2.10;;
31730;SDS011;18310;55.586;12.286;2023-02-22T18:35:48;7.38;;;2.30;;
31730;SDS011;18310;55.586;12.286;2023-02-22T18:38:56;6.38;;;1.73;;
31730;SDS011;18310;55.586;12.286;2023-02-22T18:42:00;6.50;;;2.08;;
31730;SDS011;18310;55.586;12.286;2023-02-22T18:48:09;5.82;;;2.08;;
31730;SDS011;18310;55.586;12.286;2023-02-22T18:51:16;6.00;;;1.88;;
31730;SDS011;18310;55.586;12.286;2023-02-22T18:54:30;7.55;;;1.88;;
31730;SDS011;18310;55.586;12.286;2023-02-22T18:57:41;5.95;;;2.47;;
31730;SDS011;18310;55.586;12.286;2023-02-22T19:00:56;11.27;;;2.85;;